Terminal Aerodrome Forecast
Issued by NWS

Home | Current Version | Previous Version | Text Only | Print | Product List | Glossary On
Versions: 1 2 3 4 5 6 7 8 9 10 11 12 13 14 15 16
000
FTUS42 KTAE 281700
TAFVLD
TAF
KVLD 281722Z 2818/2918 24008KT P6SM BKN040
     FM282000 24012KT P6SM VCTS BKN050CB
     FM282200 VRB15G30KT 3SM TSRA BKN030CB
     FM290100 VRB04KT P6SM SCT050 BKN100=

USA.gov is the U.S. government's official web portal to all federal, state and local government web resources and services.